Time;durP1;ratioP1;P1;durP2;ratioP2;P2;SDS_P1;SDS_P2;PMS_P1;PMS_P2;Temp;Humidity;BMP_temperature;BMP_pressure;BME280_temperature;BME280_humidity;BME280_pressure;Samples;Min_cycle;Max_cycle;Signal;HPM_P1;HPM_P2
2023/04/04 00:00:33;;;;;;;;;;;;;;;;;;5135370;27;2119;-41
2023/04/04 00:03:00;;;;;;;;;;;;;;;;;;5135318;27;1642;-43
2023/04/04 00:05:28;;;;;;;;;;;;;;;;;;5135255;27;1993;-40
2023/04/04 00:07:55;;;;;;;;;;;;;;;;;;5135209;27;1913;-44
2023/04/04 00:10:22;;;;;;;;;;;;;;;;;;5134978;27;2045;-40
2023/04/04 00:12:52;;;;;;;;;;;;;;;;;;5135285;27;1370;-43
2023/04/04 00:15:19;;;;;;;;;;;;;;;;;;5135080;27;2112;-45
2023/04/04 00:17:46;;;;;;;;;;;;;;;;;;5135079;27;1877;-40
2023/04/04 00:20:14;;;;;;;;;;;;;;;;;;5134868;27;1907;-39
2023/04/04 00:22:41;;;;;;;;;;;;;;;;;;5135023;27;2038;-41
2023/04/04 00:25:09;;;;;;;;;;;;;;;;;;5134880;27;1835;-41
2023/04/04 00:27:36;;;;;;;;;;;;;;;;;;5135007;27;1828;-41
2023/04/04 00:30:05;;;;;;;;;;;;;;;;;;5135162;27;1824;-40
2023/04/04 00:32:32;;;;;;;;;;;;;;;;;;5134725;27;1716;-40
2023/04/04 00:34:59;;;;;;;;;;;;;;;;;;5133963;27;1626;-41
2023/04/04 00:37:26;;;;;;;;;;;;;;;;;;5134700;27;2095;-40
2023/04/04 00:39:54;;;;;;;;;;;;;;;;;;5134622;27;1913;-41
2023/04/04 00:42:21;;;;;;;;;;;;;;;;;;5116003;27;1839;-41
2023/04/04 00:44:50;;;;;;;;;;;;;;;;;;5134758;27;2004;-43
2023/04/04 00:47:18;;;;;;;;;;;;;;;;;;5116005;27;2298;-43
2023/04/04 00:49:45;;;;;;;;;;;;;;;;;;5134451;27;1519;-43
2023/04/04 00:52:13;;;;;;;;;;;;;;;;;;5134285;27;1874;-41
2023/04/04 00:54:40;;;;;;;;;;;;;;;;;;5115794;27;2295;-47
2023/04/04 00:57:08;;;;;;;;;;;;;;;;;;5151258;27;1841;-45
2023/04/04 00:59:36;;;;;;;;;;;;;;;;;;5155135;27;1917;-41
2023/04/04 01:02:03;;;;;;;;;;;;;;;;;;5154892;27;1771;-40
2023/04/04 01:04:30;;;;;;;;;;;;;;;;;;5132280;27;1578;-41
2023/04/04 01:06:58;;;;;;;;;;;;;;;;;;5129905;27;2048;-40
2023/04/04 01:09:26;;;;;;;;;;;;;;;;;;5154905;27;2011;-43
2023/04/04 01:11:55;;;;;;;;;;;;;;;;;;5154656;27;2115;-40
2023/04/04 01:14:24;;;;;;;;;;;;;;;;;;5136090;27;1685;-43
2023/04/04 01:16:51;;;;;;;;;;;;;;;;;;5136119;27;1396;-43
2023/04/04 01:19:33;;;;;;;;;;;;;;;;;;5135635;27;2126;-44
2023/04/04 01:22:07;;;;;;;;;;;;;;;;;;5136188;27;1442;-45
2023/04/04 01:24:34;;;;;;;;;;;;;;;;;;5154460;27;1515;-41
2023/04/04 01:27:04;;;;;;;;;;;;;;;;;;5135925;27;2058;-40
2023/04/04 01:29:36;;;;;;;;;;;;;;;;;;5135774;27;2176;-43
2023/04/04 01:32:07;;;;;;;;;;;;;;;;;;5135665;27;1788;-41
2023/04/04 01:34:34;;;;;;;;;;;;;;;;;;5154168;27;1666;-40
2023/04/04 01:37:11;;;;;;;;;;;;;;;;;;5154592;27;2269;-40
2023/04/04 01:39:49;;;;;;;;;;;;;;;;;;5135656;27;1937;-40
2023/04/04 01:42:18;;;;;;;;;;;;;;;;;;5135479;27;1905;-43
2023/04/04 01:44:53;;;;;;;;;;;;;;;;;;5135450;27;1435;-44
2023/04/04 01:47:20;;;;;;;;;;;;;;;;;;5135225;27;1989;-39
2023/04/04 01:49:48;;;;;;;;;;;;;;;;;;5153916;27;2186;-44
2023/04/04 01:52:15;;;;;;;;;;;;;;;;;;5135244;27;1850;-40
2023/04/04 01:54:42;;;;;;;;;;;;;;;;;;5144095;27;1931;-40
2023/04/04 01:57:10;;;;;;;;;;;;;;;;;;5133290;27;1935;-40
2023/04/04 01:59:37;;;;;;;;;;;;;;;;;;5114718;27;1970;-39
2023/04/04 02:02:07;;;;;;;;;;;;;;;;;;5114585;27;1657;-48
2023/04/04 02:04:34;;;;;;;;;;;;;;;;;;5114500;27;2170;-41
2023/04/04 02:07:01;;;;;;;;;;;;;;;;;;5132953;27;1960;-40
2023/04/04 02:09:32;;;;;;;;;;;;;;;;;;5114306;27;2091;-41
2023/04/04 02:12:00;;;;;;;;;;;;;;;;;;5114294;27;1914;-40
2023/04/04 02:14:27;;;;;;;;;;;;;;;;;;5114310;27;1990;-40
2023/04/04 02:16:55;;;;;;;;;;;;;;;;;;5114222;27;1707;-40
2023/04/04 02:19:23;;;;;;;;;;;;;;;;;;5132701;27;1916;-40
2023/04/04 02:21:50;;;;;;;;;;;;;;;;;;5114125;27;1528;-43
2023/04/04 02:24:18;;;;;;;;;;;;;;;;;;5132608;27;1672;-40
2023/04/04 02:26:45;;;;;;;;;;;;;;;;;;5132761;27;1945;-42
2023/04/04 02:29:12;;;;;;;;;;;;;;;;;;5138719;27;1722;-43
2023/04/04 02:31:39;;;;;;;;;;;;;;;;;;5153232;27;1814;-40
2023/04/04 02:34:07;;;;;;;;;;;;;;;;;;5134663;27;1860;-40
2023/04/04 02:36:35;;;;;;;;;;;;;;;;;;5153206;27;1933;-40
2023/04/04 02:39:04;;;;;;;;;;;;;;;;;;5153127;27;1876;-44
2023/04/04 02:41:31;;;;;;;;;;;;;;;;;;5152921;27;1973;-40
2023/04/04 02:43:59;;;;;;;;;;;;;;;;;;5153165;27;2155;-41
2023/04/04 02:46:26;;;;;;;;;;;;;;;;;;5152897;27;1611;-38
2023/04/04 02:49:02;;;;;;;;;;;;;;;;;;5134287;27;1766;-39
2023/04/04 02:51:32;;;;;;;;;;;;;;;;;;5134303;27;1649;-41
2023/04/04 02:54:01;;;;;;;;;;;;;;;;;;5134242;27;1920;-39
2023/04/04 02:56:37;;;;;;;;;;;;;;;;;;5140470;27;2041;-40
2023/04/04 02:59:04;;;;;;;;;;;;;;;;;;5132395;27;1827;-43
2023/04/04 03:01:32;;;;;;;;;;;;;;;;;;5131770;27;1905;-40
2023/04/04 03:04:04;;;;;;;;;;;;;;;;;;5113649;28;1692;-40
2023/04/04 03:06:33;;;;;;;;;;;;;;;;;;5113488;28;1885;-39
2023/04/04 03:09:01;;;;;;;;;;;;;;;;;;5131992;28;1947;-40
2023/04/04 03:11:28;;;;;;;;;;;;;;;;;;5132117;28;1968;-40
2023/04/04 03:13:56;;;;;;;;;;;;;;;;;;5113425;28;2147;-40
2023/04/04 03:16:31;;;;;;;;;;;;;;;;;;5113582;28;1833;-48
2023/04/04 03:18:59;;;;;;;;;;;;;;;;;;5132079;28;1929;-40
2023/04/04 03:21:26;;;;;;;;;;;;;;;;;;5112653;27;1969;-39
2023/04/04 03:23:56;;;;;;;;;;;;;;;;;;5113647;28;1989;-43
2023/04/04 03:26:24;;;;;;;;;;;;;;;;;;5113217;28;2088;-40
2023/04/04 03:28:51;;;;;;;;;;;;;;;;;;5131956;28;1483;-40
2023/04/04 03:31:21;;;;;;;;;;;;;;;;;;5113396;28;1839;-44
2023/04/04 03:33:49;;;;;;;;;;;;;;;;;;5131827;28;2232;-40
2023/04/04 03:36:16;;;;;;;;;;;;;;;;;;5113312;28;1823;-40
2023/04/04 03:38:47;;;;;;;;;;;;;;;;;;5113277;28;1731;-39
2023/04/04 03:41:15;;;;;;;;;;;;;;;;;;5131862;28;1919;-39
2023/04/04 03:43:42;;;;;;;;;;;;;;;;;;5131738;28;2036;-40
2023/04/04 03:46:12;;;;;;;;;;;;;;;;;;5109987;28;2103;-41
2023/04/04 03:48:39;;;;;;;;;;;;;;;;;;5111571;28;1539;-40
2023/04/04 03:51:09;;;;;;;;;;;;;;;;;;5110150;28;1568;-40
2023/04/04 03:53:37;;;;;;;;;;;;;;;;;;5109913;28;1741;-41
2023/04/04 03:56:04;;;;;;;;;;;;;;;;;;5111154;28;1926;-40
2023/04/04 03:58:34;;;;;;;;;;;;;;;;;;5111103;28;1876;-40
2023/04/04 04:01:01;;;;;;;;;;;;;;;;;;5109663;28;2160;-40
2023/04/04 04:03:30;;;;;;;;;;;;;;;;;;5111120;28;2134;-50
2023/04/04 04:05:58;;;;;;;;;;;;;;;;;;5111026;28;1924;-40
2023/04/04 04:08:26;;;;;;;;;;;;;;;;;;5110994;28;1957;-40
2023/04/04 04:10:53;;;;;;;;;;;;;;;;;;5114300;28;1588;-40
2023/04/04 04:13:21;;;;;;;;;;;;;;;;;;5113508;28;1671;-50
2023/04/04 04:15:49;;;;;;;;;;;;;;;;;;5114757;27;2012;-43
2023/04/04 04:18:20;;;;;;;;;;;;;;;;;;5114529;28;2129;-40
2023/04/04 04:20:49;;;;;;;;;;;;;;;;;;5113113;28;1983;-40
2023/04/04 04:23:17;;;;;;;;;;;;;;;;;;5113237;28;1457;-40
2023/04/04 04:25:48;;;;;;;;;;;;;;;;;;5113324;28;1501;-41
2023/04/04 04:28:18;;;;;;;;;;;;;;;;;;5112965;28;1861;-42
2023/04/04 04:30:47;;;;;;;;;;;;;;;;;;5114317;28;1487;-40
2023/04/04 04:33:18;;;;;;;;;;;;;;;;;;5113989;28;1988;-40
2023/04/04 04:35:57;;;;;;;;;;;;;;;;;;5112931;28;1455;-47
2023/04/04 04:38:31;;;;;;;;;;;;;;;;;;5112801;28;1780;-47
2023/04/04 04:40:59;;;;;;;;;;;;;;;;;;5112895;28;1983;-40
2023/04/04 04:43:35;;;;;;;;;;;;;;;;;;5112589;28;1897;-40
2023/04/04 04:46:03;;;;;;;;;;;;;;;;;;5117493;27;2143;-40
2023/04/04 04:48:30;;;;;;;;;;;;;;;;;;5134540;27;1771;-40
2023/04/04 04:50:59;;;;;;;;;;;;;;;;;;5133379;27;1912;-41
2023/04/04 04:54:01;;;;;;;;;;;;;;;;;;5115998;27;2050;-40
2023/04/04 04:56:30;;;;;;;;;;;;;;;;;;5119999;27;2172;-41
2023/04/04 04:59:06;;;;;;;;;;;;;;;;;;5112431;28;2204;-41
2023/04/04 05:01:36;;;;;;;;;;;;;;;;;;5112349;28;1906;-40
2023/04/04 05:04:03;;;;;;;;;;;;;;;;;;5112471;28;2080;-41
2023/04/04 05:06:38;;;;;;;;;;;;;;;;;;5112485;28;1810;-42
2023/04/04 05:09:07;;;;;;;;;;;;;;;;;;5099264;28;10305;-41
2023/04/04 05:11:36;;;;;;;;;;;;;;;;;;5071778;28;2019;-40
2023/04/04 05:14:06;;;;;;;;;;;;;;;;;;5071790;28;1524;-41
2023/04/04 05:16:40;;;;;;;;;;;;;;;;;;5071461;28;1342;-41
2023/04/04 05:19:07;;;;;;;;;;;;;;;;;;5071506;28;1692;-41
2023/04/04 05:21:42;;;;;;;;;;;;;;;;;;5070949;28;2172;-40
2023/04/04 05:24:16;;;;;;;;;;;;;;;;;;5072500;28;1799;-40
2023/04/04 05:26:43;;;;;;;;;;;;;;;;;;5071186;28;1739;-41
2023/04/04 05:29:10;;;;;;;;;;;;;;;;;;5071315;28;1880;-40
2023/04/04 05:31:42;;;;;;;;;;;;;;;;;;5071071;28;1760;-40
2023/04/04 05:34:15;;;;;;;;;;;;;;;;;;5072378;28;1948;-42
2023/04/04 05:36:43;;;;;;;;;;;;;;;;;;5070771;28;1871;-40
2023/04/04 05:39:10;;;;;;;;;;;;;;;;;;5072582;28;1944;-41
2023/04/04 05:41:45;;;;;;;;;;;;;;;;;;5070644;28;1915;-39
2023/04/04 05:44:15;;;;;;;;;;;;;;;;;;5070846;28;1851;-44
2023/04/04 05:46:43;;;;;;;;;;;;;;;;;;5081222;28;1870;-41
2023/04/04 05:49:11;;;;;;;;;;;;;;;;;;5090654;28;1801;-40
2023/04/04 05:51:44;;;;;;;;;;;;;;;;;;5091098;28;1771;-40
2023/04/04 05:54:14;;;;;;;;;;;;;;;;;;5112496;28;2031;-48
2023/04/04 05:56:42;;;;;;;;;;;;;;;;;;5107731;28;2094;-40
2023/04/04 05:59:17;;;;;;;;;;;;;;;;;;5090707;28;2003;-41
2023/04/04 06:01:53;;;;;;;;;;;;;;;;;;5090635;28;2063;-40
2023/04/04 06:04:21;;;;;;;;;;;;;;;;;;5092029;28;1764;-40
2023/04/04 06:06:51;;;;;;;;;;;;;;;;;;5090596;28;2001;-39
2023/04/04 06:09:20;;;;;;;;;;;;;;;;;;5090562;28;1882;-41
2023/04/04 06:11:47;;;;;;;;;;;;;;;;;;5092040;28;2104;-40
2023/04/04 06:14:16;;;;;;;;;;;;;;;;;;5091645;28;1448;-41
2023/04/04 06:16:45;;;;;;;;;;;;;;;;;;5090548;28;2020;-45
2023/04/04 06:19:14;;;;;;;;;;;;;;;;;;5090383;28;1727;-40
2023/04/04 06:21:41;;;;;;;;;;;;;;;;;;5091764;28;1945;-40
2023/04/04 06:24:10;;;;;;;;;;;;;;;;;;5090527;28;1827;-41
2023/04/04 06:26:38;;;;;;;;;;;;;;;;;;5091831;28;1403;-41
2023/04/04 06:29:05;;;;;;;;;;;;;;;;;;5091603;28;2283;-43
2023/04/04 06:31:35;;;;;;;;;;;;;;;;;;5089859;28;1892;-41
2023/04/04 06:34:10;;;;;;;;;;;;;;;;;;5090206;28;1868;-41
2023/04/04 06:36:50;;;;;;;;;;;;;;;;;;5090227;28;2137;-41
2023/04/04 06:39:18;;;;;;;;;;;;;;;;;;5090093;28;1613;-41
2023/04/04 06:41:47;;;;;;;;;;;;;;;;;;5090013;28;1972;-41
2023/04/04 06:44:14;;;;;;;;;;;;;;;;;;5089871;28;2212;-41
2023/04/04 06:46:42;;;;;;;;;;;;;;;;;;5101676;28;1748;-40
2023/04/04 06:49:09;;;;;;;;;;;;;;;;;;5111956;28;1634;-57
2023/04/04 06:51:39;;;;;;;;;;;;;;;;;;5093385;28;2050;-40
2023/04/04 06:54:06;;;;;;;;;;;;;;;;;;5111538;28;1681;-41
2023/04/04 06:56:36;;;;;;;;;;;;;;;;;;5105013;27;1927;-46
2023/04/04 06:59:03;;;;;;;;;;;;;;;;;;5131930;27;1619;-54
2023/04/04 07:01:32;;;;;;;;;;;;;;;;;;5132098;27;1977;-46
2023/04/04 07:03:59;;;;;;;;;;;;;;;;;;5113548;28;1905;-41
2023/04/04 07:06:28;;;;;;;;;;;;;;;;;;5132155;28;2363;-41
2023/04/04 07:08:55;;;;;;;;;;;;;;;;;;5132133;28;1899;-41
2023/04/04 07:11:25;;;;;;;;;;;;;;;;;;5131805;28;2086;-42
2023/04/04 07:13:53;;;;;;;;;;;;;;;;;;5132193;28;1853;-46
2023/04/04 07:16:20;;;;;;;;;;;;;;;;;;5131984;28;2010;-41
2023/04/04 07:18:48;;;;;;;;;;;;;;;;;;5132175;28;1578;-42
2023/04/04 07:21:16;;;;;;;;;;;;;;;;;;5131877;28;1902;-44
2023/04/04 07:23:43;;;;;;;;;;;;;;;;;;5132024;28;1819;-44
2023/04/04 07:26:10;;;;;;;;;;;;;;;;;;5132005;28;1471;-42
2023/04/04 07:28:37;;;;;;;;;;;;;;;;;;5132065;28;1616;-41
2023/04/04 07:31:05;;;;;;;;;;;;;;;;;;5131836;28;1957;-47
2023/04/04 07:33:32;;;;;;;;;;;;;;;;;;5131782;28;2264;-56
2023/04/04 07:36:02;;;;;;;;;;;;;;;;;;5131877;28;1987;-46
2023/04/04 07:38:30;;;;;;;;;;;;;;;;;;5131682;28;1638;-42
2023/04/04 07:40:57;;;;;;;;;;;;;;;;;;5131805;28;1911;-47
2023/04/04 07:43:24;;;;;;;;;;;;;;;;;;5132681;27;1651;-60
2023/04/04 07:45:53;;;;;;;;;;;;;;;;;;5135661;27;1818;-42
2023/04/04 07:48:21;;;;;;;;;;;;;;;;;;5135750;27;1642;-41
2023/04/04 07:50:48;;;;;;;;;;;;;;;;;;5135815;27;1641;-42
2023/04/04 07:53:16;;;;;;;;;;;;;;;;;;5135624;27;1641;-48
2023/04/04 07:55:44;;;;;;;;;;;;;;;;;;5131091;27;1446;-42
2023/04/04 07:58:11;;;;;;;;;;;;;;;;;;5115204;28;1669;-42
2023/04/04 08:00:38;;;;;;;;;;;;;;;;;;5115064;28;1615;-55
2023/04/04 08:03:06;;;;;;;;;;;;;;;;;;5114868;28;1993;-45
2023/04/04 08:05:33;;;;;;;;;;;;;;;;;;5114828;28;1606;-41
2023/04/04 08:08:00;;;;;;;;;;;;;;;;;;5115065;28;1504;-54
2023/04/04 08:10:28;;;;;;;;;;;;;;;;;;5114717;28;1799;-42
2023/04/04 08:12:55;;;;;;;;;;;;;;;;;;5114805;28;2139;-42
2023/04/04 08:15:22;;;;;;;;;;;;;;;;;;5114768;28;1856;-42
2023/04/04 08:17:49;;;;;;;;;;;;;;;;;;5114753;28;1652;-41
2023/04/04 08:20:17;;;;;;;;;;;;;;;;;;5114453;28;1972;-41
2023/04/04 08:22:44;;;;;;;;;;;;;;;;;;5114361;28;1910;-41
2023/04/04 08:25:11;;;;;;;;;;;;;;;;;;5114827;28;2111;-46
2023/04/04 08:27:39;;;;;;;;;;;;;;;;;;5114762;28;1753;-41
2023/04/04 08:30:08;;;;;;;;;;;;;;;;;;5114501;28;1799;-41
2023/04/04 08:32:35;;;;;;;;;;;;;;;;;;5114049;28;1878;-43
2023/04/04 08:35:02;;;;;;;;;;;;;;;;;;5114269;28;1526;-58
2023/04/04 08:37:29;;;;;;;;;;;;;;;;;;5114305;28;1670;-57
2023/04/04 08:39:57;;;;;;;;;;;;;;;;;;5114371;28;1482;-48
2023/04/04 08:42:26;;;;;;;;;;;;;;;;;;5114183;28;1977;-57
2023/04/04 08:44:54;;;;;;;;;;;;;;;;;;5114047;28;2044;-53
2023/04/04 08:47:23;;;;;;;;;;;;;;;;;;5113994;28;2272;-44
2023/04/04 08:49:51;;;;;;;;;;;;;;;;;;5114127;28;2261;-42
2023/04/04 08:52:21;;;;;;;;;;;;;;;;;;5113863;28;1839;-43
2023/04/04 08:54:49;;;;;;;;;;;;;;;;;;5113167;28;1860;-58
2023/04/04 08:57:17;;;;;;;;;;;;;;;;;;5131526;27;1917;-59
2023/04/04 08:59:44;;;;;;;;;;;;;;;;;;5117367;27;1749;-41
2023/04/04 09:02:18;;;;;;;;;;;;;;;;;;5113980;28;2170;-42
2023/04/04 09:04:47;;;;;;;;;;;;;;;;;;5120460;27;1775;-47
2023/04/04 09:07:29;;;;;;;;;;;;;;;;;;5121795;27;2212;-42
2023/04/04 09:09:57;;;;;;;;;;;;;;;;;;5125583;27;2092;-42
2023/04/04 09:12:25;;;;;;;;;;;;;;;;;;5121610;27;1753;-41
2023/04/04 09:14:52;;;;;;;;;;;;;;;;;;5096681;28;1819;-41
2023/04/04 09:17:19;;;;;;;;;;;;;;;;;;5122354;27;1610;-41
2023/04/04 09:19:46;;;;;;;;;;;;;;;;;;5120510;27;1692;-42
2023/04/04 09:22:14;;;;;;;;;;;;;;;;;;5122922;27;2092;-43
2023/04/04 09:24:42;;;;;;;;;;;;;;;;;;5125075;27;2036;-41
2023/04/04 09:27:10;;;;;;;;;;;;;;;;;;5123491;27;1826;-41
2023/04/04 09:29:38;;;;;;;;;;;;;;;;;;5123280;27;1715;-42
2023/04/04 09:32:24;;;;;;;;;;;;;;;;;;5133728;27;1805;-42
2023/04/04 09:34:52;;;;;;;;;;;;;;;;;;5133520;27;1549;-41
2023/04/04 09:37:20;;;;;;;;;;;;;;;;;;5130252;27;2176;-43
2023/04/04 09:39:47;;;;;;;;;;;;;;;;;;5133743;27;1779;-42
2023/04/04 09:42:15;;;;;;;;;;;;;;;;;;5133405;27;1975;-41
2023/04/04 09:44:43;;;;;;;;;;;;;;;;;;5133573;27;2303;-41
2023/04/04 09:47:24;;;;;;;;;;;;;;;;;;5133510;27;2003;-41
2023/04/04 09:49:58;;;;;;;;;;;;;;;;;;5132989;27;1791;-42
2023/04/04 09:52:25;;;;;;;;;;;;;;;;;;5133352;27;1995;-41
2023/04/04 09:54:57;;;;;;;;;;;;;;;;;;5133219;27;2241;-42
2023/04/04 09:57:25;;;;;;;;;;;;;;;;;;5124385;27;1488;-41
2023/04/04 09:59:55;;;;;;;;;;;;;;;;;;5133046;27;1621;-41
2023/04/04 10:02:23;;;;;;;;;;;;;;;;;;5132928;27;2006;-43
2023/04/04 10:04:52;;;;;;;;;;;;;;;;;;5133254;27;1465;-42
2023/04/04 10:07:29;;;;;;;;;;;;;;;;;;5132031;27;1616;-40
2023/04/04 10:10:00;;;;;;;;;;;;;;;;;;5132961;27;1587;-41
2023/04/04 10:12:29;;;;;;;;;;;;;;;;;;5132908;27;2149;-44
2023/04/04 10:14:56;;;;;;;;;;;;;;;;;;5132662;27;1269;-41
2023/04/04 10:17:24;;;;;;;;;;;;;;;;;;5114933;27;1822;-42
2023/04/04 10:19:53;;;;;;;;;;;;;;;;;;5112406;28;1765;-41
2023/04/04 10:22:22;;;;;;;;;;;;;;;;;;5093600;28;2077;-42
2023/04/04 10:24:49;;;;;;;;;;;;;;;;;;5093610;28;2211;-40
2023/04/04 10:27:17;;;;;;;;;;;;;;;;;;5112107;28;1974;-40
2023/04/04 10:29:44;;;;;;;;;;;;;;;;;;5112088;28;1846;-41
2023/04/04 10:32:16;;;;;;;;;;;;;;;;;;5112338;28;2336;-42
2023/04/04 10:34:55;;;;;;;;;;;;;;;;;;5112228;28;1934;-42
2023/04/04 10:37:27;;;;;;;;;;;;;;;;;;5112036;28;1624;-40
2023/04/04 10:40:07;;;;;;;;;;;;;;;;;;5111809;28;2147;-41
2023/04/04 10:42:38;;;;;;;;;;;;;;;;;;5111912;28;2154;-42
2023/04/04 10:45:08;;;;;;;;;;;;;;;;;;5111944;28;1707;-41
2023/04/04 10:47:46;;;;;;;;;;;;;;;;;;5111659;28;1904;-41
2023/04/04 10:50:14;;;;;;;;;;;;;;;;;;5111777;28;2063;-42
2023/04/04 10:52:42;;;;;;;;;;;;;;;;;;5112081;28;1515;-40
2023/04/04 10:55:11;;;;;;;;;;;;;;;;;;5111864;28;1648;-41
2023/04/04 10:57:42;;;;;;;;;;;;;;;;;;5111541;28;2178;-41
2023/04/04 11:00:11;;;;;;;;;;;;;;;;;;5111712;28;1663;-44
2023/04/04 11:02:42;;;;;;;;;;;;;;;;;;5123155;27;1913;-41
2023/04/04 11:05:13;;;;;;;;;;;;;;;;;;5132204;27;1924;-41
2023/04/04 11:07:41;;;;;;;;;;;;;;;;;;5131657;28;1781;-44
2023/04/04 11:10:14;;;;;;;;;;;;;;;;;;5132393;28;2081;-43
2023/04/04 11:12:44;;;;;;;;;;;;;;;;;;5132374;28;1840;-47
2023/04/04 11:15:13;;;;;;;;;;;;;;;;;;5132168;28;1638;-43
2023/04/04 11:17:43;;;;;;;;;;;;;;;;;;5114000;27;1521;-41
2023/04/04 11:20:10;;;;;;;;;;;;;;;;;;5136056;27;1773;-44
2023/04/04 11:22:40;;;;;;;;;;;;;;;;;;5136131;27;2174;-41
2023/04/04 11:25:25;;;;;;;;;;;;;;;;;;5136374;27;2104;-41
2023/04/04 11:27:55;;;;;;;;;;;;;;;;;;5136193;27;1714;-40
2023/04/04 11:30:22;;;;;;;;;;;;;;;;;;5136245;27;1787;-41
2023/04/04 11:32:50;;;;;;;;;;;;;;;;;;5136288;27;1847;-41
2023/04/04 11:35:29;;;;;;;;;;;;;;;;;;5133541;27;1785;-45
2023/04/04 11:37:57;;;;;;;;;;;;;;;;;;5115436;28;1948;-41
2023/04/04 11:40:38;;;;;;;;;;;;;;;;;;5115269;28;1713;-46
2023/04/04 11:43:08;;;;;;;;;;;;;;;;;;5115361;28;2116;-47
2023/04/04 11:45:36;;;;;;;;;;;;;;;;;;5115207;28;1935;-42
2023/04/04 11:48:05;;;;;;;;;;;;;;;;;;5115490;28;1835;-41
2023/04/04 11:50:38;;;;;;;;;;;;;;;;;;5115147;28;1889;-41
2023/04/04 11:53:10;;;;;;;;;;;;;;;;;;5115264;28;1860;-44
2023/04/04 11:55:41;;;;;;;;;;;;;;;;;;5118673;27;1636;-43
2023/04/04 11:58:12;;;;;;;;;;;;;;;;;;5135645;27;1675;-42
2023/04/04 12:00:40;;;;;;;;;;;;;;;;;;5135443;27;1893;-40
2023/04/04 12:03:09;;;;;;;;;;;;;;;;;;5135485;27;2032;-41
2023/04/04 12:05:38;;;;;;;;;;;;;;;;;;5134713;27;1438;-40
2023/04/04 12:08:06;;;;;;;;;;;;;;;;;;5115008;28;2146;-41
2023/04/04 12:10:34;;;;;;;;;;;;;;;;;;5115022;28;1843;-40
2023/04/04 12:13:06;;;;;;;;;;;;;;;;;;5114794;28;1691;-40
2023/04/04 12:15:36;;;;;;;;;;;;;;;;;;5114600;28;1716;-41
2023/04/04 12:18:07;;;;;;;;;;;;;;;;;;5114753;28;1756;-41
2023/04/04 12:20:38;;;;;;;;;;;;;;;;;;5114591;28;2099;-49
2023/04/04 12:23:05;;;;;;;;;;;;;;;;;;5114585;28;2132;-46
2023/04/04 12:25:33;;;;;;;;;;;;;;;;;;5115054;28;2169;-51
2023/04/04 12:28:02;;;;;;;;;;;;;;;;;;5114446;28;1558;-51
2023/04/04 12:30:29;;;;;;;;;;;;;;;;;;5113307;28;1561;-51
2023/04/04 12:32:57;;;;;;;;;;;;;;;;;;5114414;28;1669;-41
2023/04/04 12:35:25;;;;;;;;;;;;;;;;;;5114634;28;1960;-41
2023/04/04 12:38:00;;;;;;;;;;;;;;;;;;5114273;28;1927;-40
2023/04/04 12:40:37;;;;;;;;;;;;;;;;;;5114335;28;1394;-41
2023/04/04 12:43:05;;;;;;;;;;;;;;;;;;5114193;28;2162;-40
2023/04/04 12:45:36;;;;;;;;;;;;;;;;;;5114014;28;1934;-40
2023/04/04 12:48:08;;;;;;;;;;;;;;;;;;5114235;28;2067;-40
2023/04/04 12:50:47;;;;;;;;;;;;;;;;;;5114159;28;1948;-40
2023/04/04 12:53:14;;;;;;;;;;;;;;;;;;5113948;28;1714;-41
2023/04/04 12:55:55;;;;;;;;;;;;;;;;;;5119791;27;2017;-40
2023/04/04 12:58:24;;;;;;;;;;;;;;;;;;5134550;27;1896;-45
2023/04/04 13:00:53;;;;;;;;;;;;;;;;;;5134280;27;1805;-41
2023/04/04 13:03:24;;;;;;;;;;;;;;;;;;5116032;27;1986;-41
2023/04/04 13:05:51;;;;;;;;;;;;;;;;;;5134283;27;1867;-40
2023/04/04 13:08:18;;;;;;;;;;;;;;;;;;5134495;27;1940;-40
2023/04/04 13:10:56;;;;;;;;;;;;;;;;;;5134501;27;2057;-39
2023/04/04 13:13:35;;;;;;;;;;;;;;;;;;5134208;27;2046;-41
2023/04/04 13:16:04;;;;;;;;;;;;;;;;;;5134014;27;2048;-40
2023/04/04 13:18:32;;;;;;;;;;;;;;;;;;5134224;27;2058;-39
2023/04/04 13:20:59;;;;;;;;;;;;;;;;;;5133970;27;2013;-41
2023/04/04 13:23:27;;;;;;;;;;;;;;;;;;5133987;27;1936;-41
2023/04/04 13:25:54;;;;;;;;;;;;;;;;;;5133932;27;2094;-41
2023/04/04 13:28:21;;;;;;;;;;;;;;;;;;5134105;27;1857;-40
2023/04/04 13:30:48;;;;;;;;;;;;;;;;;;5133810;27;2360;-41
2023/04/04 13:33:16;;;;;;;;;;;;;;;;;;5134032;27;2247;-44
2023/04/04 13:35:44;;;;;;;;;;;;;;;;;;5133783;27;2037;-40
2023/04/04 13:38:11;;;;;;;;;;;;;;;;;;5133588;27;2278;-40
2023/04/04 13:40:39;;;;;;;;;;;;;;;;;;5133553;27;2274;-40
2023/04/04 13:43:07;;;;;;;;;;;;;;;;;;5133302;27;2235;-41
2023/04/04 13:45:34;;;;;;;;;;;;;;;;;;5133385;27;1949;-41
2023/04/04 13:48:02;;;;;;;;;;;;;;;;;;5133609;27;1855;-45
2023/04/04 13:50:30;;;;;;;;;;;;;;;;;;5133494;27;1981;-40
2023/04/04 13:52:57;;;;;;;;;;;;;;;;;;5133472;27;1613;-41
2023/04/04 13:55:25;;;;;;;;;;;;;;;;;;5131561;27;1693;-43
2023/04/04 13:57:52;;;;;;;;;;;;;;;;;;5112755;28;1364;-41
2023/04/04 14:00:20;;;;;;;;;;;;;;;;;;5112854;28;1660;-41
2023/04/04 14:02:50;;;;;;;;;;;;;;;;;;5112594;28;1982;-40
2023/04/04 14:05:20;;;;;;;;;;;;;;;;;;5112196;28;1690;-42
2023/04/04 14:07:47;;;;;;;;;;;;;;;;;;5112595;28;1652;-48
2023/04/04 14:10:15;;;;;;;;;;;;;;;;;;5112286;28;1976;-41
2023/04/04 14:12:42;;;;;;;;;;;;;;;;;;5112498;28;1881;-39
2023/04/04 14:15:11;;;;;;;;;;;;;;;;;;5112490;28;1954;-41
2023/04/04 14:17:38;;;;;;;;;;;;;;;;;;5112421;28;2158;-40
2023/04/04 14:20:06;;;;;;;;;;;;;;;;;;5112243;28;1938;-40
2023/04/04 14:22:33;;;;;;;;;;;;;;;;;;5112245;28;1914;-40
2023/04/04 14:25:01;;;;;;;;;;;;;;;;;;5112228;28;2071;-42
2023/04/04 14:27:28;;;;;;;;;;;;;;;;;;5112132;28;2012;-39
2023/04/04 14:29:55;;;;;;;;;;;;;;;;;;5112518;28;1855;-40
2023/04/04 14:32:23;;;;;;;;;;;;;;;;;;5112303;28;1987;-42
2023/04/04 14:34:50;;;;;;;;;;;;;;;;;;5129381;27;1462;-41
2023/04/04 14:37:17;;;;;;;;;;;;;;;;;;5132453;27;1683;-41
2023/04/04 14:39:45;;;;;;;;;;;;;;;;;;5132611;27;2260;-42
2023/04/04 14:42:12;;;;;;;;;;;;;;;;;;5132538;27;1898;-40
2023/04/04 14:44:40;;;;;;;;;;;;;;;;;;5132498;27;1974;-47
2023/04/04 14:47:08;;;;;;;;;;;;;;;;;;5132359;27;1827;-40
2023/04/04 14:49:35;;;;;;;;;;;;;;;;;;5132390;27;2021;-40
2023/04/04 14:52:02;;;;;;;;;;;;;;;;;;5132267;27;1967;-39
2023/04/04 14:54:29;;;;;;;;;;;;;;;;;;5131708;27;1576;-40
2023/04/04 14:56:59;;;;;;;;;;;;;;;;;;5117528;27;2138;-40
2023/04/04 14:59:26;;;;;;;;;;;;;;;;;;5112027;28;2115;-41
2023/04/04 15:01:54;;;;;;;;;;;;;;;;;;5111885;28;1690;-40
2023/04/04 15:04:21;;;;;;;;;;;;;;;;;;5111416;28;1976;-40
2023/04/04 15:06:48;;;;;;;;;;;;;;;;;;5111726;28;1945;-40
2023/04/04 15:09:16;;;;;;;;;;;;;;;;;;5111659;28;2269;-40
2023/04/04 15:11:43;;;;;;;;;;;;;;;;;;5111609;28;1957;-39
2023/04/04 15:14:11;;;;;;;;;;;;;;;;;;5111650;28;2009;-41
2023/04/04 15:16:38;;;;;;;;;;;;;;;;;;5111450;28;1926;-44
2023/04/04 15:19:05;;;;;;;;;;;;;;;;;;5111551;28;1308;-48
2023/04/04 15:21:32;;;;;;;;;;;;;;;;;;5111387;28;1709;-50
2023/04/04 15:23:59;;;;;;;;;;;;;;;;;;5111453;28;2119;-43
2023/04/04 15:26:26;;;;;;;;;;;;;;;;;;5111673;28;1871;-48
2023/04/04 15:28:54;;;;;;;;;;;;;;;;;;5111611;28;2373;-48
2023/04/04 15:31:21;;;;;;;;;;;;;;;;;;5111303;28;1868;-48
2023/04/04 15:33:49;;;;;;;;;;;;;;;;;;5111520;28;2152;-41
2023/04/04 15:36:16;;;;;;;;;;;;;;;;;;5111324;28;1550;-46
2023/04/04 15:38:43;;;;;;;;;;;;;;;;;;5111397;28;1868;-40
2023/04/04 15:41:11;;;;;;;;;;;;;;;;;;5111356;28;1975;-47
2023/04/04 15:43:38;;;;;;;;;;;;;;;;;;5111268;28;1898;-41
2023/04/04 15:46:05;;;;;;;;;;;;;;;;;;5110968;28;1508;-41
2023/04/04 15:48:33;;;;;;;;;;;;;;;;;;5111158;28;1484;-43
2023/04/04 15:51:01;;;;;;;;;;;;;;;;;;5111428;28;2105;-44
2023/04/04 15:53:29;;;;;;;;;;;;;;;;;;5111412;28;1809;-48
2023/04/04 15:55:57;;;;;;;;;;;;;;;;;;5111456;28;1889;-50
2023/04/04 15:58:25;;;;;;;;;;;;;;;;;;5111226;28;1856;-51
2023/04/04 16:00:52;;;;;;;;;;;;;;;;;;5111148;28;1607;-50
2023/04/04 16:03:20;;;;;;;;;;;;;;;;;;5111085;28;1975;-40
2023/04/04 16:05:47;;;;;;;;;;;;;;;;;;5114367;28;2136;-40
2023/04/04 16:08:15;;;;;;;;;;;;;;;;;;5115276;28;1549;-40
2023/04/04 16:10:43;;;;;;;;;;;;;;;;;;5114862;28;1942;-40
2023/04/04 16:13:11;;;;;;;;;;;;;;;;;;5114600;28;1695;-39
2023/04/04 16:15:39;;;;;;;;;;;;;;;;;;5114857;28;2081;-41
2023/04/04 16:18:07;;;;;;;;;;;;;;;;;;5114772;28;1618;-39
2023/04/04 16:20:35;;;;;;;;;;;;;;;;;;5114457;28;2185;-40
2023/04/04 16:23:02;;;;;;;;;;;;;;;;;;5114870;28;1536;-41
2023/04/04 16:25:29;;;;;;;;;;;;;;;;;;5114741;28;1920;-40
2023/04/04 16:27:56;;;;;;;;;;;;;;;;;;5113885;28;1800;-40
2023/04/04 16:30:23;;;;;;;;;;;;;;;;;;5114522;28;1533;-46
2023/04/04 16:32:50;;;;;;;;;;;;;;;;;;5114423;28;1650;-40
2023/04/04 16:35:18;;;;;;;;;;;;;;;;;;5114289;28;2068;-40
2023/04/04 16:37:45;;;;;;;;;;;;;;;;;;5114356;28;1867;-40
2023/04/04 16:40:14;;;;;;;;;;;;;;;;;;5114339;28;1741;-39
2023/04/04 16:42:41;;;;;;;;;;;;;;;;;;5114174;28;2026;-40
2023/04/04 16:45:08;;;;;;;;;;;;;;;;;;5114053;28;2108;-40
2023/04/04 16:47:36;;;;;;;;;;;;;;;;;;5114052;28;1902;-40
2023/04/04 16:50:07;;;;;;;;;;;;;;;;;;5114445;28;2103;-40
2023/04/04 16:52:35;;;;;;;;;;;;;;;;;;5114225;28;1729;-39
2023/04/04 16:55:02;;;;;;;;;;;;;;;;;;5114107;28;1932;-39
2023/04/04 16:57:29;;;;;;;;;;;;;;;;;;5133289;27;2049;-42
2023/04/04 16:59:56;;;;;;;;;;;;;;;;;;5134480;27;1815;-40
2023/04/04 17:02:23;;;;;;;;;;;;;;;;;;5134288;27;2009;-40
2023/04/04 17:04:51;;;;;;;;;;;;;;;;;;5133223;27;2060;-41
2023/04/04 17:07:19;;;;;;;;;;;;;;;;;;5134195;27;1806;-39
2023/04/04 17:09:46;;;;;;;;;;;;;;;;;;5133083;27;1636;-39
2023/04/04 17:12:15;;;;;;;;;;;;;;;;;;5133963;27;1890;-39
2023/04/04 17:14:43;;;;;;;;;;;;;;;;;;5133853;27;1763;-39